Hauptseite
METAR-TAF:

METAR-TAF

Flughäfen :

Termiz, Usbekistan

Breite: 37-14N, Länge: 067-16E, Höhe: 302 m

Beobachtung

Neuester Wetterbericht von vor 28 Minuten, um 06:30 UTC
Wind 2 kt aus Ost/Südost
Temperatur 36°C
Luftfeuchtigkeit 21%
Luftdruck 1008 hPa
Sichtweite 10 km oder mehr
keine Wolken unter 1500 m und keine Kumulonimbus oder Gewitterwolken

METAR: UTST 180630Z 12002KT CAVOK 36/10 Q1008 R25/CLRD70 NOSIG

Zeit: 11:58 (06:58 UTC)

Prognose

Neuester Wetterbericht von vor 1 Stunde und 58 Minuten, um 05:00 UTC
Gültige Prognose vom 18 um 06 UTC bis 19 um 06 UTC
Wind 6 kt aus West, Böen bis zu 16 kt
Sichtweite: 6000 m
Zeitweise
vom 18 um 06 UTC bis 18 um 15 UTC
Wind 12 kt aus unterschiedlichen Richtungen, Böen bis zu 22 kt
Aufgelockert bewölkt in der Höhe von 6000 ft, Kumulonimbus.

TAF: UTST 180500Z 1806/1906 26006G16KT 6000 NSC TX40/1811Z TN24/1901Z TEMPO 1806/1815 VRB12G22KT SCT060CB

Wetterbeobachtungen und Prognosen von mehr als 4000 Flughäfen (METAR und TAF Bericht).

Die verfügbaren Stationen werden durch gelbe und rote Markierungen auf der Karte dargestellt.

Führen Sie die Maus auf sie, um den Namen der Station zu sehen.

Darauf klicken, um die Beobachtung von Wetterbeobachtungen und Prognosen zu sehen.

Um die Karte zu ändern : klicken Sie auf den grünen Tasten mit einem schwarzen Kreuz Zum Vergrößern, auf den grünen Button mit einem Gedankenstrich zu verkleinern, oder auf die grünen Pfeile für benachbarte Karten.


METAR-TAF: